Olathe, Colorado
Current Conditions -  °F | °C
As of 2:53 PM on Monday 20 Oct 2014 (Local Time) from KMTJ Reporting Station
Few Clouds Few Clouds  
Wind Chill: 73°   Ceiling: Unl
Heat Index: 73°   Visibility: 10mi
Dew Point: 35°   Wind: 9mph
Humidity: 25%   Direction: 360°N
Pressure: 30.12"   Gusts: NA
Location:  38.6°N, 107.98°W
Report Text: KMTJ 202053Z AUTO 36008KT 10SM FEW120 23/02 A3012 RMK AO2 SLP140 T02280017 56025
Loading
Personal Weather Stations






























Interactive Weather Map
Tropical Storm Tracking
New forecast layout! Learn more

10-Day Weather Forecast

Advertisements
Track Severe Weather on mobile